Aeroporto :
LOGIN :

Iscrizione | Disclaimer

   EN    FR    IT 

 










Sommario :    VFR   VFR Marginale   IFR   IFR Intensivo   IFR Molto Intensivo
Visibilità : 
Base nubi : 
>= 8 km
>= 3000ft
5 / 8 km
1000 / 3000 ft
1500m / 5 km
500 / 1000 ft
800 / 1500m
200 / 500 ft
< 800m
< 200 ft
Simboli :   Temporali  Nebbia  Neve Forte  Precipitazioni Forti  Vento > 20 kt
SIGMETs :   Varie  Temporali  Ghiacco  Turbolenza  Onda orograficha  Ceneri Vulcaniche







- Altitudine del aeroporto : 2945 ft
- Codice IATA : RGS


LEBG - Burgos

ULTIMO METAR :
  • 161930Z AUTO 24006KT 9999 SCT008/// OVC015/// 03/02 Q1017

METARs OBSOLETI :
  • 161900Z 24006KT 170V270 9999 BKN010 BKN015 03/02 Q1017
  • 161830Z 23008KT 9999 BKN012 04/02 Q1017
  • 161800Z 22006KT 9999 BKN014 04/02 Q1017
  • 161730Z 20008KT 9999 BKN015 04/02 Q1016
  • 161700Z 21007KT 9999 BKN016 04/02 Q1016

TAF TAF LEBG
Valido dal 16 a 18 ore il 17 a 03 ore UTC


161700Z 1618/1703 23012KT 9999 BKN014 OVC030
PROB40
TEMPO 1618/1703 2500 BR BKN009
PROB40
TEMPO 1622/1703 1500 BCFG BKN005
BECMG 1619/1621 VRB04KT
Nessun NOTAM noto per questo aeroporto.



MetMap, La meteo Aeronautica in un colpo d'occhio ! - Copyright ORBIFLY Dicembre 2007 - Disclaimer

ORBIFLY MET'MAP TEAM :

Programmazione e sviluppo : Alexandra Zaïnal
Concezione e sviluppo : Baudouin d'Aumeries
Co-Programmazione e sviluppo : Marc-Olivier Méhu
Supporto tecnico e logistico : Manuel Goepfert
Aiuto per la traduzione : Arnaldo La Scala

Contatto : metmap@orbifly.com




FONTI E CREDITI :

   NOAA